sensor_id;sensor_type;location;lat;lon;timestamp;P1;durP1;ratioP1;P2;durP2;ratioP2
912;SDS011;443;51.448;7.028;2023-02-28T00:01:04;4.93;;;3.87;;
912;SDS011;443;51.448;7.028;2023-02-28T00:03:30;4.77;;;3.83;;
912;SDS011;443;51.448;7.028;2023-02-28T00:06:00;10.37;;;4.40;;
912;SDS011;443;51.448;7.028;2023-02-28T00:08:27;4.80;;;4.40;;
912;SDS011;443;51.448;7.028;2023-02-28T00:10:54;4.13;;;3.73;;
912;SDS011;443;51.448;7.028;2023-02-28T00:13:20;9.10;;;4.73;;
912;SDS011;443;51.448;7.028;2023-02-28T00:15:48;4.20;;;3.67;;
912;SDS011;443;51.448;7.028;2023-02-28T00:18:25;3.50;;;2.60;;
912;SDS011;443;51.448;7.028;2023-02-28T00:20:51;5.60;;;2.27;;
912;SDS011;443;51.448;7.028;2023-02-28T00:23:18;2.67;;;2.10;;
912;SDS011;443;51.448;7.028;2023-02-28T00:25:45;5.07;;;2.90;;
912;SDS011;443;51.448;7.028;2023-02-28T00:28:12;4.20;;;3.27;;
912;SDS011;443;51.448;7.028;2023-02-28T00:30:39;5.90;;;2.40;;
912;SDS011;443;51.448;7.028;2023-02-28T00:33:07;3.17;;;2.67;;
912;SDS011;443;51.448;7.028;2023-02-28T00:35:34;3.00;;;2.37;;
912;SDS011;443;51.448;7.028;2023-02-28T00:38:00;4.07;;;2.30;;
912;SDS011;443;51.448;7.028;2023-02-28T00:40:31;3.53;;;2.40;;
912;SDS011;443;51.448;7.028;2023-02-28T00:43:07;2.80;;;2.50;;
912;SDS011;443;51.448;7.028;2023-02-28T00:45:40;4.80;;;2.63;;
912;SDS011;443;51.448;7.028;2023-02-28T00:51:15;6.57;;;2.40;;
912;SDS011;443;51.448;7.028;2023-02-28T00:54:03;6.33;;;2.53;;
912;SDS011;443;51.448;7.028;2023-02-28T00:56:40;2.87;;;2.57;;
912;SDS011;443;51.448;7.028;2023-02-28T00:59:16;3.40;;;2.00;;
912;SDS011;443;51.448;7.028;2023-02-28T01:01:46;9.33;;;2.50;;
912;SDS011;443;51.448;7.028;2023-02-28T01:04:14;4.80;;;2.30;;
912;SDS011;443;51.448;7.028;2023-02-28T01:06:41;3.00;;;2.00;;
912;SDS011;443;51.448;7.028;2023-02-28T01:09:08;4.17;;;2.13;;
912;SDS011;443;51.448;7.028;2023-02-28T01:11:36;3.53;;;2.03;;
912;SDS011;443;51.448;7.028;2023-02-28T01:14:03;3.33;;;2.30;;
912;SDS011;443;51.448;7.028;2023-02-28T01:16:30;3.93;;;2.43;;
912;SDS011;443;51.448;7.028;2023-02-28T01:18:57;5.07;;;2.60;;
912;SDS011;443;51.448;7.028;2023-02-28T01:21:25;4.50;;;2.97;;
912;SDS011;443;51.448;7.028;2023-02-28T01:23:52;2.77;;;1.73;;
912;SDS011;443;51.448;7.028;2023-02-28T01:26:22;3.20;;;2.33;;
912;SDS011;443;51.448;7.028;2023-02-28T01:28:49;3.33;;;2.40;;
912;SDS011;443;51.448;7.028;2023-02-28T01:31:17;6.30;;;2.87;;
912;SDS011;443;51.448;7.028;2023-02-28T01:33:44;6.47;;;2.60;;
912;SDS011;443;51.448;7.028;2023-02-28T01:36:11;2.53;;;2.10;;
912;SDS011;443;51.448;7.028;2023-02-28T01:38:41;2.30;;;2.03;;
912;SDS011;443;51.448;7.028;2023-02-28T01:41:08;2.80;;;2.20;;
912;SDS011;443;51.448;7.028;2023-02-28T01:43:57;7.40;;;2.63;;
912;SDS011;443;51.448;7.028;2023-02-28T01:46:28;2.90;;;2.20;;
912;SDS011;443;51.448;7.028;2023-02-28T01:48:56;3.20;;;2.20;;
912;SDS011;443;51.448;7.028;2023-02-28T01:51:28;3.90;;;2.43;;
912;SDS011;443;51.448;7.028;2023-02-28T01:54:01;3.37;;;2.37;;
912;SDS011;443;51.448;7.028;2023-02-28T01:56:32;4.07;;;2.33;;
912;SDS011;443;51.448;7.028;2023-02-28T01:59:01;5.00;;;2.97;;
912;SDS011;443;51.448;7.028;2023-02-28T02:01:29;3.30;;;2.47;;
912;SDS011;443;51.448;7.028;2023-02-28T02:03:57;2.30;;;2.10;;
912;SDS011;443;51.448;7.028;2023-02-28T02:06:27;3.33;;;1.80;;
912;SDS011;443;51.448;7.028;2023-02-28T02:09:01;2.73;;;2.13;;
912;SDS011;443;51.448;7.028;2023-02-28T02:11:28;2.60;;;1.77;;
912;SDS011;443;51.448;7.028;2023-02-28T02:14:03;3.93;;;2.47;;
912;SDS011;443;51.448;7.028;2023-02-28T02:16:51;6.33;;;2.93;;
912;SDS011;443;51.448;7.028;2023-02-28T02:19:40;5.00;;;2.33;;
912;SDS011;443;51.448;7.028;2023-02-28T02:22:28;2.80;;;2.17;;
912;SDS011;443;51.448;7.028;2023-02-28T02:25:11;3.60;;;2.03;;
912;SDS011;443;51.448;7.028;2023-02-28T02:27:58;2.60;;;1.97;;
912;SDS011;443;51.448;7.028;2023-02-28T02:34:06;3.43;;;2.20;;
912;SDS011;443;51.448;7.028;2023-02-28T02:37:01;3.00;;;1.63;;
912;SDS011;443;51.448;7.028;2023-02-28T02:39:36;4.23;;;2.67;;
912;SDS011;443;51.448;7.028;2023-02-28T02:42:12;2.73;;;2.37;;
912;SDS011;443;51.448;7.028;2023-02-28T02:44:43;4.17;;;2.33;;
912;SDS011;443;51.448;7.028;2023-02-28T02:47:14;2.70;;;1.87;;
912;SDS011;443;51.448;7.028;2023-02-28T02:49:46;4.30;;;2.30;;
912;SDS011;443;51.448;7.028;2023-02-28T02:52:16;5.93;;;3.17;;
912;SDS011;443;51.448;7.028;2023-02-28T02:54:48;3.23;;;1.90;;
912;SDS011;443;51.448;7.028;2023-02-28T02:57:20;3.10;;;2.20;;
912;SDS011;443;51.448;7.028;2023-02-28T02:59:50;6.33;;;2.20;;
912;SDS011;443;51.448;7.028;2023-02-28T03:02:19;2.80;;;1.90;;
912;SDS011;443;51.448;7.028;2023-02-28T03:04:50;3.03;;;2.03;;
912;SDS011;443;51.448;7.028;2023-02-28T03:07:19;4.03;;;2.50;;
912;SDS011;443;51.448;7.028;2023-02-28T03:09:50;2.67;;;1.80;;
912;SDS011;443;51.448;7.028;2023-02-28T03:12:17;4.40;;;1.90;;
912;SDS011;443;51.448;7.028;2023-02-28T03:14:48;3.50;;;1.93;;
912;SDS011;443;51.448;7.028;2023-02-28T03:17:28;2.90;;;2.60;;
912;SDS011;443;51.448;7.028;2023-02-28T03:20:07;3.53;;;1.97;;
912;SDS011;443;51.448;7.028;2023-02-28T03:22:56;2.30;;;1.80;;
912;SDS011;443;51.448;7.028;2023-02-28T03:25:31;2.47;;;1.37;;
912;SDS011;443;51.448;7.028;2023-02-28T03:28:05;2.27;;;2.07;;
912;SDS011;443;51.448;7.028;2023-02-28T03:30:42;4.97;;;2.40;;
912;SDS011;443;51.448;7.028;2023-02-28T03:33:19;1.93;;;1.73;;
912;SDS011;443;51.448;7.028;2023-02-28T03:35:52;5.37;;;2.93;;
912;SDS011;443;51.448;7.028;2023-02-28T03:38:25;2.40;;;1.90;;
912;SDS011;443;51.448;7.028;2023-02-28T03:40:58;2.60;;;2.03;;
912;SDS011;443;51.448;7.028;2023-02-28T03:43:31;2.37;;;1.70;;
912;SDS011;443;51.448;7.028;2023-02-28T03:46:03;3.17;;;1.77;;
912;SDS011;443;51.448;7.028;2023-02-28T03:48:34;2.73;;;2.50;;
912;SDS011;443;51.448;7.028;2023-02-28T03:51:08;2.90;;;1.97;;
912;SDS011;443;51.448;7.028;2023-02-28T03:53:41;3.03;;;1.70;;
912;SDS011;443;51.448;7.028;2023-02-28T03:56:11;2.30;;;1.80;;
912;SDS011;443;51.448;7.028;2023-02-28T03:58:44;2.13;;;1.50;;
912;SDS011;443;51.448;7.028;2023-02-28T04:01:17;2.83;;;2.23;;
912;SDS011;443;51.448;7.028;2023-02-28T04:03:47;2.10;;;1.80;;
912;SDS011;443;51.448;7.028;2023-02-28T04:06:17;3.13;;;1.57;;
912;SDS011;443;51.448;7.028;2023-02-28T04:08:45;2.23;;;1.50;;
912;SDS011;443;51.448;7.028;2023-02-28T04:11:15;6.13;;;2.37;;
912;SDS011;443;51.448;7.028;2023-02-28T04:13:45;1.83;;;1.60;;
912;SDS011;443;51.448;7.028;2023-02-28T04:16:13;2.80;;;2.10;;
912;SDS011;443;51.448;7.028;2023-02-28T04:18:40;1.80;;;1.70;;
912;SDS011;443;51.448;7.028;2023-02-28T04:21:09;3.00;;;1.70;;
912;SDS011;443;51.448;7.028;2023-02-28T04:23:37;3.73;;;2.07;;
912;SDS011;443;51.448;7.028;2023-02-28T04:26:04;2.53;;;1.63;;
912;SDS011;443;51.448;7.028;2023-02-28T04:28:31;1.90;;;1.80;;
912;SDS011;443;51.448;7.028;2023-02-28T04:30:58;6.77;;;1.70;;
912;SDS011;443;51.448;7.028;2023-02-28T04:33:26;2.33;;;1.40;;
912;SDS011;443;51.448;7.028;2023-02-28T04:35:59;2.83;;;1.73;;
912;SDS011;443;51.448;7.028;2023-02-28T04:38:27;3.30;;;2.10;;
912;SDS011;443;51.448;7.028;2023-02-28T04:40:57;3.43;;;1.90;;
912;SDS011;443;51.448;7.028;2023-02-28T04:43:25;3.57;;;2.40;;
912;SDS011;443;51.448;7.028;2023-02-28T04:45:52;3.60;;;2.07;;
912;SDS011;443;51.448;7.028;2023-02-28T04:48:22;2.83;;;1.73;;
912;SDS011;443;51.448;7.028;2023-02-28T04:50:49;2.17;;;1.60;;
912;SDS011;443;51.448;7.028;2023-02-28T04:53:16;2.30;;;1.67;;
912;SDS011;443;51.448;7.028;2023-02-28T04:55:43;2.13;;;1.50;;
912;SDS011;443;51.448;7.028;2023-02-28T04:58:12;2.60;;;1.80;;
912;SDS011;443;51.448;7.028;2023-02-28T05:00:39;4.30;;;1.93;;
912;SDS011;443;51.448;7.028;2023-02-28T05:03:06;2.23;;;1.57;;
912;SDS011;443;51.448;7.028;2023-02-28T05:05:33;2.87;;;2.00;;
912;SDS011;443;51.448;7.028;2023-02-28T05:08:00;2.50;;;1.70;;
912;SDS011;443;51.448;7.028;2023-02-28T05:10:27;6.67;;;2.67;;
912;SDS011;443;51.448;7.028;2023-02-28T05:12:53;2.30;;;1.70;;
912;SDS011;443;51.448;7.028;2023-02-28T05:15:22;3.80;;;2.00;;
912;SDS011;443;51.448;7.028;2023-02-28T05:17:49;3.40;;;1.97;;
912;SDS011;443;51.448;7.028;2023-02-28T05:20:16;2.20;;;1.80;;
912;SDS011;443;51.448;7.028;2023-02-28T05:22:43;3.73;;;1.77;;
912;SDS011;443;51.448;7.028;2023-02-28T05:25:11;3.30;;;2.17;;
912;SDS011;443;51.448;7.028;2023-02-28T05:27:42;2.00;;;1.40;;
912;SDS011;443;51.448;7.028;2023-02-28T05:30:10;2.50;;;2.30;;
912;SDS011;443;51.448;7.028;2023-02-28T05:32:39;4.30;;;2.20;;
912;SDS011;443;51.448;7.028;2023-02-28T05:35:08;4.37;;;2.13;;
912;SDS011;443;51.448;7.028;2023-02-28T05:37:36;3.03;;;2.53;;
912;SDS011;443;51.448;7.028;2023-02-28T05:40:04;3.80;;;1.77;;
912;SDS011;443;51.448;7.028;2023-02-28T05:42:32;3.67;;;2.47;;
912;SDS011;443;51.448;7.028;2023-02-28T05:44:59;3.60;;;2.23;;
912;SDS011;443;51.448;7.028;2023-02-28T05:47:26;2.80;;;2.07;;
912;SDS011;443;51.448;7.028;2023-02-28T05:49:54;3.73;;;2.10;;
912;SDS011;443;51.448;7.028;2023-02-28T05:52:21;3.13;;;2.30;;
912;SDS011;443;51.448;7.028;2023-02-28T05:54:48;2.80;;;2.37;;
912;SDS011;443;51.448;7.028;2023-02-28T05:57:15;4.40;;;2.43;;
912;SDS011;443;51.448;7.028;2023-02-28T05:59:41;3.67;;;2.17;;
912;SDS011;443;51.448;7.028;2023-02-28T06:02:09;5.77;;;2.40;;
912;SDS011;443;51.448;7.028;2023-02-28T06:04:39;3.07;;;2.27;;
912;SDS011;443;51.448;7.028;2023-02-28T06:07:08;6.70;;;1.97;;
912;SDS011;443;51.448;7.028;2023-02-28T06:09:35;6.23;;;3.80;;
912;SDS011;443;51.448;7.028;2023-02-28T06:12:03;3.10;;;2.03;;
912;SDS011;443;51.448;7.028;2023-02-28T06:14:32;2.33;;;1.73;;
912;SDS011;443;51.448;7.028;2023-02-28T06:17:00;3.30;;;1.77;;
912;SDS011;443;51.448;7.028;2023-02-28T06:19:27;3.20;;;1.63;;
912;SDS011;443;51.448;7.028;2023-02-28T06:21:55;3.53;;;2.27;;
912;SDS011;443;51.448;7.028;2023-02-28T06:24:24;2.80;;;2.00;;
912;SDS011;443;51.448;7.028;2023-02-28T06:26:52;2.00;;;1.80;;
912;SDS011;443;51.448;7.028;2023-02-28T06:29:19;3.43;;;2.20;;
912;SDS011;443;51.448;7.028;2023-02-28T06:31:46;2.70;;;1.90;;
912;SDS011;443;51.448;7.028;2023-02-28T06:34:13;3.17;;;2.43;;
912;SDS011;443;51.448;7.028;2023-02-28T06:36:41;3.80;;;2.37;;
912;SDS011;443;51.448;7.028;2023-02-28T06:39:08;3.03;;;2.20;;
912;SDS011;443;51.448;7.028;2023-02-28T06:41:36;5.80;;;2.80;;
912;SDS011;443;51.448;7.028;2023-02-28T06:44:05;5.47;;;2.50;;
912;SDS011;443;51.448;7.028;2023-02-28T06:46:38;4.23;;;1.83;;
912;SDS011;443;51.448;7.028;2023-02-28T06:49:05;4.80;;;2.50;;
912;SDS011;443;51.448;7.028;2023-02-28T06:51:33;4.00;;;2.93;;
912;SDS011;443;51.448;7.028;2023-02-28T06:54:01;8.20;;;5.27;;
912;SDS011;443;51.448;7.028;2023-02-28T06:56:28;4.93;;;3.50;;
912;SDS011;443;51.448;7.028;2023-02-28T06:58:56;5.87;;;2.80;;
912;SDS011;443;51.448;7.028;2023-02-28T07:01:23;3.47;;;2.60;;
912;SDS011;443;51.448;7.028;2023-02-28T07:03:51;3.73;;;2.47;;
912;SDS011;443;51.448;7.028;2023-02-28T07:06:18;3.87;;;2.80;;
912;SDS011;443;51.448;7.028;2023-02-28T07:08:44;5.30;;;3.03;;
912;SDS011;443;51.448;7.028;2023-02-28T07:11:11;4.47;;;3.57;;
912;SDS011;443;51.448;7.028;2023-02-28T07:13:38;2.30;;;1.93;;
912;SDS011;443;51.448;7.028;2023-02-28T07:16:07;3.57;;;2.60;;
912;SDS011;443;51.448;7.028;2023-02-28T07:18:37;4.37;;;2.63;;
912;SDS011;443;51.448;7.028;2023-02-28T07:21:04;4.10;;;2.20;;
912;SDS011;443;51.448;7.028;2023-02-28T07:23:33;5.93;;;2.90;;
912;SDS011;443;51.448;7.028;2023-02-28T07:26:00;4.37;;;3.40;;
912;SDS011;443;51.448;7.028;2023-02-28T07:28:26;5.27;;;2.60;;
912;SDS011;443;51.448;7.028;2023-02-28T07:30:53;3.60;;;2.80;;
912;SDS011;443;51.448;7.028;2023-02-28T07:33:21;5.70;;;3.70;;
912;SDS011;443;51.448;7.028;2023-02-28T07:35:48;3.70;;;2.77;;
912;SDS011;443;51.448;7.028;2023-02-28T07:38:15;3.40;;;3.10;;
912;SDS011;443;51.448;7.028;2023-02-28T07:40:42;3.07;;;2.30;;
912;SDS011;443;51.448;7.028;2023-02-28T07:43:09;4.70;;;2.07;;
912;SDS011;443;51.448;7.028;2023-02-28T07:45:36;5.70;;;2.50;;
912;SDS011;443;51.448;7.028;2023-02-28T07:48:02;2.40;;;2.00;;
912;SDS011;443;51.448;7.028;2023-02-28T07:50:31;2.43;;;2.23;;
912;SDS011;443;51.448;7.028;2023-02-28T07:52:58;2.27;;;1.77;;
912;SDS011;443;51.448;7.028;2023-02-28T07:55:25;6.37;;;2.90;;
912;SDS011;443;51.448;7.028;2023-02-28T07:57:52;3.40;;;2.10;;
912;SDS011;443;51.448;7.028;2023-02-28T08:00:19;2.70;;;2.50;;
912;SDS011;443;51.448;7.028;2023-02-28T08:02:46;3.87;;;1.97;;
912;SDS011;443;51.448;7.028;2023-02-28T08:05:13;2.87;;;2.10;;
912;SDS011;443;51.448;7.028;2023-02-28T08:07:41;7.70;;;2.50;;
912;SDS011;443;51.448;7.028;2023-02-28T08:10:08;4.83;;;2.60;;
912;SDS011;443;51.448;7.028;2023-02-28T08:12:36;5.50;;;2.63;;
912;SDS011;443;51.448;7.028;2023-02-28T08:15:03;3.37;;;3.03;;
912;SDS011;443;51.448;7.028;2023-02-28T08:17:30;4.13;;;2.37;;
912;SDS011;443;51.448;7.028;2023-02-28T08:19:57;2.40;;;2.00;;
912;SDS011;443;51.448;7.028;2023-02-28T08:22:23;4.27;;;2.60;;
912;SDS011;443;51.448;7.028;2023-02-28T08:24:51;7.77;;;2.57;;
912;SDS011;443;51.448;7.028;2023-02-28T08:27:18;3.60;;;2.50;;
912;SDS011;443;51.448;7.028;2023-02-28T08:29:45;3.00;;;2.10;;
912;SDS011;443;51.448;7.028;2023-02-28T08:32:12;4.20;;;2.97;;
912;SDS011;443;51.448;7.028;2023-02-28T08:34:39;3.50;;;2.90;;
912;SDS011;443;51.448;7.028;2023-02-28T08:37:06;5.47;;;3.47;;
912;SDS011;443;51.448;7.028;2023-02-28T08:39:33;3.20;;;2.87;;
912;SDS011;443;51.448;7.028;2023-02-28T08:42:02;3.33;;;2.43;;
912;SDS011;443;51.448;7.028;2023-02-28T08:44:29;3.13;;;2.87;;
912;SDS011;443;51.448;7.028;2023-02-28T08:46:56;3.17;;;2.87;;
912;SDS011;443;51.448;7.028;2023-02-28T08:49:23;3.17;;;2.33;;
912;SDS011;443;51.448;7.028;2023-02-28T08:51:50;2.20;;;2.00;;
912;SDS011;443;51.448;7.028;2023-02-28T08:54:16;3.80;;;2.90;;
912;SDS011;443;51.448;7.028;2023-02-28T08:56:44;3.73;;;2.80;;
912;SDS011;443;51.448;7.028;2023-02-28T08:59:12;3.87;;;2.20;;
912;SDS011;443;51.448;7.028;2023-02-28T09:01:39;2.77;;;1.90;;
912;SDS011;443;51.448;7.028;2023-02-28T09:04:08;3.93;;;2.60;;
912;SDS011;443;51.448;7.028;2023-02-28T09:06:36;5.40;;;2.37;;
912;SDS011;443;51.448;7.028;2023-02-28T09:09:04;4.53;;;2.90;;
912;SDS011;443;51.448;7.028;2023-02-28T09:11:32;7.10;;;2.93;;
912;SDS011;443;51.448;7.028;2023-02-28T09:13:59;13.37;;;2.80;;
912;SDS011;443;51.448;7.028;2023-02-28T09:16:30;2.90;;;2.50;;
912;SDS011;443;51.448;7.028;2023-02-28T09:18:57;2.43;;;2.10;;
912;SDS011;443;51.448;7.028;2023-02-28T09:21:25;2.47;;;2.20;;
912;SDS011;443;51.448;7.028;2023-02-28T09:23:52;3.20;;;2.17;;
912;SDS011;443;51.448;7.028;2023-02-28T09:26:19;4.03;;;2.00;;
912;SDS011;443;51.448;7.028;2023-02-28T09:28:48;3.07;;;2.30;;
912;SDS011;443;51.448;7.028;2023-02-28T09:31:18;2.30;;;1.80;;
912;SDS011;443;51.448;7.028;2023-02-28T09:33:48;2.17;;;1.70;;
912;SDS011;443;51.448;7.028;2023-02-28T09:36:15;3.47;;;1.90;;
912;SDS011;443;51.448;7.028;2023-02-28T09:38:43;1.97;;;1.20;;
912;SDS011;443;51.448;7.028;2023-02-28T09:41:12;2.00;;;1.80;;
912;SDS011;443;51.448;7.028;2023-02-28T09:43:42;2.70;;;1.73;;
912;SDS011;443;51.448;7.028;2023-02-28T09:46:16;3.13;;;1.60;;
912;SDS011;443;51.448;7.028;2023-02-28T09:48:54;3.00;;;2.30;;
912;SDS011;443;51.448;7.028;2023-02-28T09:51:27;1.87;;;1.40;;
912;SDS011;443;51.448;7.028;2023-02-28T09:54:00;3.00;;;1.57;;
912;SDS011;443;51.448;7.028;2023-02-28T09:56:30;1.77;;;1.20;;
912;SDS011;443;51.448;7.028;2023-02-28T09:59:00;3.40;;;1.90;;
912;SDS011;443;51.448;7.028;2023-02-28T10:01:31;1.70;;;1.13;;
912;SDS011;443;51.448;7.028;2023-02-28T10:04:05;1.97;;;1.30;;
912;SDS011;443;51.448;7.028;2023-02-28T10:06:43;1.80;;;1.50;;
912;SDS011;443;51.448;7.028;2023-02-28T10:09:13;2.90;;;1.27;;
912;SDS011;443;51.448;7.028;2023-02-28T10:11:45;2.07;;;1.20;;
912;SDS011;443;51.448;7.028;2023-02-28T10:14:15;1.20;;;0.90;;
912;SDS011;443;51.448;7.028;2023-02-28T10:16:45;1.70;;;1.57;;
912;SDS011;443;51.448;7.028;2023-02-28T10:19:19;3.43;;;1.30;;
912;SDS011;443;51.448;7.028;2023-02-28T10:21:51;1.57;;;1.43;;
912;SDS011;443;51.448;7.028;2023-02-28T10:24:23;1.03;;;0.60;;
912;SDS011;443;51.448;7.028;2023-02-28T10:26:56;1.70;;;1.30;;
912;SDS011;443;51.448;7.028;2023-02-28T10:29:27;2.23;;;1.53;;
912;SDS011;443;51.448;7.028;2023-02-28T10:31:58;1.80;;;1.20;;
912;SDS011;443;51.448;7.028;2023-02-28T10:34:28;0.80;;;0.60;;
912;SDS011;443;51.448;7.028;2023-02-28T10:36:55;4.63;;;2.13;;
912;SDS011;443;51.448;7.028;2023-02-28T10:39:33;1.37;;;1.27;;
912;SDS011;443;51.448;7.028;2023-02-28T10:42:02;1.53;;;1.23;;
912;SDS011;443;51.448;7.028;2023-02-28T10:44:30;1.70;;;1.30;;
912;SDS011;443;51.448;7.028;2023-02-28T10:46:57;1.80;;;1.30;;
912;SDS011;443;51.448;7.028;2023-02-28T10:49:25;2.70;;;1.33;;
912;SDS011;443;51.448;7.028;2023-02-28T10:51:56;1.07;;;0.70;;
912;SDS011;443;51.448;7.028;2023-02-28T10:54:27;1.97;;;1.27;;
912;SDS011;443;51.448;7.028;2023-02-28T10:57:06;1.80;;;1.30;;
912;SDS011;443;51.448;7.028;2023-02-28T10:59:39;1.70;;;1.43;;
912;SDS011;443;51.448;7.028;2023-02-28T11:04:56;1.30;;;1.07;;
912;SDS011;443;51.448;7.028;2023-02-28T11:07:25;1.53;;;0.90;;
912;SDS011;443;51.448;7.028;2023-02-28T11:09:53;2.10;;;0.97;;
912;SDS011;443;51.448;7.028;2023-02-28T11:12:23;1.40;;;1.17;;
912;SDS011;443;51.448;7.028;2023-02-28T11:14:53;1.77;;;1.30;;
912;SDS011;443;51.448;7.028;2023-02-28T11:17:23;3.30;;;1.50;;
912;SDS011;443;51.448;7.028;2023-02-28T11:19:53;3.30;;;1.90;;
912;SDS011;443;51.448;7.028;2023-02-28T11:22:23;2.00;;;1.37;;
912;SDS011;443;51.448;7.028;2023-02-28T11:24:54;1.33;;;1.10;;
912;SDS011;443;51.448;7.028;2023-02-28T11:27:42;2.50;;;1.67;;
912;SDS011;443;51.448;7.028;2023-02-28T11:33:14;2.23;;;1.10;;
912;SDS011;443;51.448;7.028;2023-02-28T11:35:53;1.83;;;1.27;;
912;SDS011;443;51.448;7.028;2023-02-28T11:38:26;1.50;;;1.30;;
912;SDS011;443;51.448;7.028;2023-02-28T11:41:02;1.83;;;1.13;;
912;SDS011;443;51.448;7.028;2023-02-28T11:43:52;1.00;;;0.90;;
912;SDS011;443;51.448;7.028;2023-02-28T11:46:27;0.90;;;0.80;;
912;SDS011;443;51.448;7.028;2023-02-28T11:49:02;2.30;;;1.43;;
912;SDS011;443;51.448;7.028;2023-02-28T11:51:43;1.73;;;1.23;;
912;SDS011;443;51.448;7.028;2023-02-28T11:54:30;1.87;;;1.53;;
912;SDS011;443;51.448;7.028;2023-02-28T11:57:19;1.93;;;1.30;;
912;SDS011;443;51.448;7.028;2023-02-28T11:59:57;2.03;;;1.60;;
912;SDS011;443;51.448;7.028;2023-02-28T12:02:32;2.00;;;1.00;;
912;SDS011;443;51.448;7.028;2023-02-28T12:05:19;2.20;;;1.43;;
912;SDS011;443;51.448;7.028;2023-02-28T12:07:55;0.80;;;0.57;;
912;SDS011;443;51.448;7.028;2023-02-28T12:10:32;1.67;;;1.07;;
912;SDS011;443;51.448;7.028;2023-02-28T12:13:07;2.10;;;1.50;;
912;SDS011;443;51.448;7.028;2023-02-28T12:15:53;1.30;;;0.97;;
912;SDS011;443;51.448;7.028;2023-02-28T12:18:48;1.77;;;1.50;;
912;SDS011;443;51.448;7.028;2023-02-28T12:21:32;2.13;;;1.60;;
912;SDS011;443;51.448;7.028;2023-02-28T12:24:14;1.07;;;0.70;;
912;SDS011;443;51.448;7.028;2023-02-28T12:26:51;1.60;;;1.50;;
912;SDS011;443;51.448;7.028;2023-02-28T12:29:21;2.00;;;1.60;;
912;SDS011;443;51.448;7.028;2023-02-28T12:31:51;2.60;;;1.50;;
912;SDS011;443;51.448;7.028;2023-02-28T12:34:22;1.63;;;1.10;;
912;SDS011;443;51.448;7.028;2023-02-28T12:36:54;2.50;;;1.40;;
912;SDS011;443;51.448;7.028;2023-02-28T12:39:26;1.47;;;1.37;;
912;SDS011;443;51.448;7.028;2023-02-28T12:41:56;1.23;;;1.00;;
912;SDS011;443;51.448;7.028;2023-02-28T12:44:28;1.30;;;1.20;;
912;SDS011;443;51.448;7.028;2023-02-28T12:47:00;1.80;;;1.70;;
912;SDS011;443;51.448;7.028;2023-02-28T12:49:31;3.07;;;1.57;;
912;SDS011;443;51.448;7.028;2023-02-28T12:52:02;1.53;;;1.10;;
912;SDS011;443;51.448;7.028;2023-02-28T12:54:31;2.23;;;1.50;;
912;SDS011;443;51.448;7.028;2023-02-28T12:57:08;1.77;;;1.43;;
912;SDS011;443;51.448;7.028;2023-02-28T12:59:40;2.20;;;1.90;;
912;SDS011;443;51.448;7.028;2023-02-28T13:05:19;1.90;;;1.40;;
912;SDS011;443;51.448;7.028;2023-02-28T13:11:02;1.47;;;1.37;;
912;SDS011;443;51.448;7.028;2023-02-28T13:13:31;2.10;;;1.57;;
912;SDS011;443;51.448;7.028;2023-02-28T13:16:02;4.23;;;2.10;;
912;SDS011;443;51.448;7.028;2023-02-28T13:18:32;1.50;;;1.33;;
912;SDS011;443;51.448;7.028;2023-02-28T13:21:02;2.87;;;2.10;;
912;SDS011;443;51.448;7.028;2023-02-28T13:29:35;3.90;;;1.83;;
912;SDS011;443;51.448;7.028;2023-02-28T13:34:49;2.53;;;2.00;;
912;SDS011;443;51.448;7.028;2023-02-28T13:38:01;3.20;;;1.63;;
912;SDS011;443;51.448;7.028;2023-02-28T13:40:41;3.30;;;2.03;;
912;SDS011;443;51.448;7.028;2023-02-28T13:43:08;1.70;;;1.13;;
912;SDS011;443;51.448;7.028;2023-02-28T13:45:35;1.80;;;1.63;;
912;SDS011;443;51.448;7.028;2023-02-28T13:48:03;2.60;;;2.23;;
912;SDS011;443;51.448;7.028;2023-02-28T13:50:41;3.43;;;3.10;;
912;SDS011;443;51.448;7.028;2023-02-28T13:56:01;2.60;;;2.40;;
912;SDS011;443;51.448;7.028;2023-02-28T13:58:37;3.50;;;2.43;;
912;SDS011;443;51.448;7.028;2023-02-28T14:01:20;2.60;;;2.27;;
912;SDS011;443;51.448;7.028;2023-02-28T14:06:57;2.07;;;1.60;;
912;SDS011;443;51.448;7.028;2023-02-28T14:09:27;2.37;;;2.17;;
912;SDS011;443;51.448;7.028;2023-02-28T14:11:56;2.13;;;1.80;;
912;SDS011;443;51.448;7.028;2023-02-28T14:17:23;2.30;;;2.07;;
912;SDS011;443;51.448;7.028;2023-02-28T14:19:51;3.20;;;1.93;;
912;SDS011;443;51.448;7.028;2023-02-28T14:22:21;3.10;;;2.80;;
912;SDS011;443;51.448;7.028;2023-02-28T14:25:13;3.60;;;2.90;;
912;SDS011;443;51.448;7.028;2023-02-28T14:27:50;2.00;;;1.87;;
912;SDS011;443;51.448;7.028;2023-02-28T14:30:37;2.03;;;1.30;;
912;SDS011;443;51.448;7.028;2023-02-28T14:33:23;8.93;;;2.23;;
912;SDS011;443;51.448;7.028;2023-02-28T14:36:03;4.83;;;3.03;;
912;SDS011;443;51.448;7.028;2023-02-28T14:38:36;2.37;;;2.17;;
912;SDS011;443;51.448;7.028;2023-02-28T14:41:14;3.70;;;3.00;;
912;SDS011;443;51.448;7.028;2023-02-28T14:43:50;2.60;;;1.47;;
912;SDS011;443;51.448;7.028;2023-02-28T14:46:19;2.60;;;1.90;;
912;SDS011;443;51.448;7.028;2023-02-28T14:48:47;4.40;;;2.70;;
912;SDS011;443;51.448;7.028;2023-02-28T14:51:18;2.50;;;2.27;;
912;SDS011;443;51.448;7.028;2023-02-28T14:53:47;5.40;;;2.47;;
912;SDS011;443;51.448;7.028;2023-02-28T14:56:22;1.60;;;1.50;;
912;SDS011;443;51.448;7.028;2023-02-28T14:58:52;3.03;;;2.37;;
912;SDS011;443;51.448;7.028;2023-02-28T15:01:21;4.03;;;2.10;;
912;SDS011;443;51.448;7.028;2023-02-28T15:03:56;2.60;;;2.40;;
912;SDS011;443;51.448;7.028;2023-02-28T15:06:25;2.87;;;2.57;;
912;SDS011;443;51.448;7.028;2023-02-28T15:09:06;3.40;;;2.37;;
912;SDS011;443;51.448;7.028;2023-02-28T15:11:36;3.20;;;2.60;;
912;SDS011;443;51.448;7.028;2023-02-28T15:14:04;3.87;;;3.00;;
912;SDS011;443;51.448;7.028;2023-02-28T15:16:31;4.13;;;2.27;;
912;SDS011;443;51.448;7.028;2023-02-28T15:19:04;3.30;;;1.80;;
912;SDS011;443;51.448;7.028;2023-02-28T15:21:33;3.50;;;2.50;;
912;SDS011;443;51.448;7.028;2023-02-28T15:24:03;2.67;;;2.40;;
912;SDS011;443;51.448;7.028;2023-02-28T15:26:34;2.43;;;1.83;;
912;SDS011;443;51.448;7.028;2023-02-28T15:29:05;2.80;;;2.10;;
912;SDS011;443;51.448;7.028;2023-02-28T15:31:40;2.87;;;2.30;;
912;SDS011;443;51.448;7.028;2023-02-28T15:34:12;2.37;;;2.10;;
912;SDS011;443;51.448;7.028;2023-02-28T15:36:45;4.40;;;2.43;;
912;SDS011;443;51.448;7.028;2023-02-28T15:39:19;2.93;;;2.63;;
912;SDS011;443;51.448;7.028;2023-02-28T15:41:48;4.70;;;3.47;;
912;SDS011;443;51.448;7.028;2023-02-28T15:44:16;4.20;;;2.10;;
912;SDS011;443;51.448;7.028;2023-02-28T15:46:56;2.60;;;2.40;;
912;SDS011;443;51.448;7.028;2023-02-28T15:49:26;3.60;;;2.10;;
912;SDS011;443;51.448;7.028;2023-02-28T15:51:54;2.73;;;2.20;;
912;SDS011;443;51.448;7.028;2023-02-28T15:54:27;3.20;;;2.90;;
912;SDS011;443;51.448;7.028;2023-02-28T15:57:03;4.40;;;2.73;;
912;SDS011;443;51.448;7.028;2023-02-28T15:59:33;3.40;;;2.60;;
912;SDS011;443;51.448;7.028;2023-02-28T16:02:03;3.13;;;2.83;;
912;SDS011;443;51.448;7.028;2023-02-28T16:07:21;3.23;;;2.60;;
912;SDS011;443;51.448;7.028;2023-02-28T16:09:49;2.43;;;2.20;;
912;SDS011;443;51.448;7.028;2023-02-28T16:12:17;1.93;;;1.73;;
912;SDS011;443;51.448;7.028;2023-02-28T16:14:44;2.33;;;2.10;;
912;SDS011;443;51.448;7.028;2023-02-28T16:17:19;2.13;;;2.00;;
912;SDS011;443;51.448;7.028;2023-02-28T16:19:47;3.70;;;2.60;;
912;SDS011;443;51.448;7.028;2023-02-28T16:22:14;3.30;;;2.63;;
912;SDS011;443;51.448;7.028;2023-02-28T16:24:42;2.60;;;2.40;;
912;SDS011;443;51.448;7.028;2023-02-28T16:27:10;3.43;;;2.80;;
912;SDS011;443;51.448;7.028;2023-02-28T16:29:44;2.60;;;2.40;;
912;SDS011;443;51.448;7.028;2023-02-28T16:32:12;3.27;;;2.60;;
912;SDS011;443;51.448;7.028;2023-02-28T16:34:40;2.70;;;2.50;;
912;SDS011;443;51.448;7.028;2023-02-28T16:37:09;6.33;;;2.43;;
912;SDS011;443;51.448;7.028;2023-02-28T16:39:39;2.60;;;2.13;;
912;SDS011;443;51.448;7.028;2023-02-28T16:42:06;3.17;;;2.47;;
912;SDS011;443;51.448;7.028;2023-02-28T16:44:37;2.60;;;2.40;;
912;SDS011;443;51.448;7.028;2023-02-28T16:47:04;3.90;;;3.00;;